Time;durP1;ratioP1;P1;durP2;ratioP2;P2;SDS_P1;SDS_P2;PMS_P1;PMS_P2;Temp;Humidity;BMP_temperature;BMP_pressure;BME280_temperature;BME280_humidity;BME280_pressure;Samples;Min_cycle;Max_cycle;Signal;HPM_P1;HPM_P2
2023/10/15 00:00:24;;;;;;;19.75;4.55;;;;;;;6.01;100.00;101690.63;5010032;28;20419;-67
2023/10/15 00:02:53;;;;;;;15.68;4.13;;;;;;;6.08;100.00;101691.28;5009739;28;20095;-67
2023/10/15 00:05:25;;;;;;;17.10;4.13;;;;;;;6.14;100.00;101709.50;5009521;28;20026;-67
2023/10/15 00:07:51;;;;;;;15.27;3.80;;;;;;;6.22;100.00;101716.47;5009907;28;20025;-67
2023/10/15 00:10:19;;;;;;;17.67;4.25;;;;;;;6.30;100.00;101726.16;5009509;28;20099;-67
2023/10/15 00:12:47;;;;;;;16.75;4.05;;;;;;;6.34;100.00;101728.16;5009420;28;20073;-67
2023/10/15 00:15:19;;;;;;;19.63;5.13;;;;;;;6.40;100.00;101724.41;5009424;28;20105;-67
2023/10/15 00:17:46;;;;;;;17.85;4.45;;;;;;;6.45;100.00;101731.03;5009914;28;20034;-67
2023/10/15 00:20:16;;;;;;;18.75;4.47;;;;;;;6.48;100.00;101727.78;4991850;28;20438;-67
2023/10/15 00:22:45;;;;;;;20.42;5.00;;;;;;;6.51;100.00;101728.09;5009890;28;20052;-67
2023/10/15 00:25:13;;;;;;;16.95;4.65;;;;;;;6.55;100.00;101733.91;5009860;28;20036;-67
2023/10/15 00:27:40;;;;;;;17.60;4.43;;;;;;;6.59;100.00;101735.06;5009484;28;20056;-67
2023/10/15 00:30:12;;;;;;;19.08;4.35;;;;;;;6.60;100.00;101724.88;5009292;28;20050;-67
2023/10/15 00:32:38;;;;;;;16.85;4.53;;;;;;;6.63;100.00;101722.44;5009561;28;20025;-67
2023/10/15 00:35:04;;;;;;;17.60;3.88;;;;;;;6.67;100.00;101725.50;5009650;28;20534;-67
2023/10/15 00:37:29;;;;;;;16.75;4.15;;;;;;;6.67;100.00;101726.34;5009600;28;20199;-67
2023/10/15 00:39:58;;;;;;;17.80;4.20;;;;;;;6.69;100.00;101723.31;5009434;28;20076;-68
2023/10/15 00:42:24;;;;;;;20.25;4.00;;;;;;;6.70;100.00;101723.09;5009302;28;20036;-67
2023/10/15 00:44:49;;;;;;;16.35;3.65;;;;;;;6.71;100.00;101712.91;5009653;28;20026;-67
2023/10/15 00:47:15;;;;;;;18.50;4.00;;;;;;;6.73;100.00;101710.72;5009145;28;20038;-67
2023/10/15 00:49:44;;;;;;;19.85;3.90;;;;;;;6.74;100.00;101709.66;5012481;28;20065;-67
2023/10/15 00:52:10;;;;;;;15.60;3.72;;;;;;;6.72;100.00;101700.81;5012943;28;20061;-66
2023/10/15 00:54:38;;;;;;;15.38;3.90;;;;;;;6.73;100.00;101705.22;5012914;28;20113;-66
2023/10/15 00:57:25;;;;;;;18.95;4.35;;;;;;;6.72;100.00;101703.56;5012789;28;20033;-67
2023/10/15 00:59:54;;;;;;;17.35;4.70;;;;;;;6.70;100.00;101703.84;5012402;28;20390;-67
2023/10/15 01:02:22;;;;;;;17.90;3.97;;;;;;;6.70;100.00;101694.75;5013017;28;20030;-67
2023/10/15 01:04:51;;;;;;;15.90;3.88;;;;;;;6.69;100.00;101693.06;5012927;28;20084;-67
2023/10/15 01:10:01;;;;;;;15.88;3.83;;;;;;;6.69;100.00;101688.44;5013275;28;20064;-66
2023/10/15 01:12:32;;;;;;;15.57;3.53;;;;;;;6.75;100.00;101707.72;5012686;28;20022;-67
2023/10/15 01:14:59;;;;;;;12.95;3.80;;;;;;;6.76;100.00;101703.88;5012712;28;20030;-67
2023/10/15 01:17:26;;;;;;;15.38;3.60;;;;;;;6.75;100.00;101694.81;5012663;28;20119;-66
2023/10/15 01:19:51;;;;;;;17.83;3.67;;;;;;;6.77;100.00;101694.53;5012126;28;20128;-67
2023/10/15 01:22:18;;;;;;;15.63;3.50;;;;;;;6.76;100.00;101699.19;5012724;28;20188;-67
2023/10/15 01:24:45;;;;;;;12.25;3.30;;;;;;;6.80;100.00;101711.34;5012648;28;20105;-67
2023/10/15 01:27:11;;;;;;;13.70;3.33;;;;;;;6.80;100.00;101716.03;4994886;28;20041;-67
2023/10/15 01:29:44;;;;;;;15.85;3.45;;;;;;;6.79;100.00;101717.13;5012784;28;20393;-67
2023/10/15 01:32:11;;;;;;;13.82;3.55;;;;;;;6.74;100.00;101687.66;5012796;28;20033;-67
2023/10/15 01:34:37;;;;;;;16.42;3.78;;;;;;;6.70;100.00;101692.84;5012625;28;20022;-67
2023/10/15 01:39:48;;;;;;;16.30;4.00;;;;;;;6.72;100.00;101687.88;5012574;28;20111;-67
2023/10/15 01:45:13;;;;;;;12.40;3.28;;;;;;;6.66;100.00;101727.44;5012394;28;20046;-67
2023/10/15 01:47:56;;;;;;;;;;;;;;;6.72;100.00;101711.81;5012912;28;20100;-67
2023/10/15 01:50:24;;;;;;;16.48;3.33;;;;;;;6.65;100.00;101722.19;5012468;28;19920;-67
2023/10/15 01:53:01;;;;;;;15.32;3.67;;;;;;;6.70;100.00;101727.75;5012066;28;20034;-67
2023/10/15 01:55:28;;;;;;;17.95;3.92;;;;;;;6.67;100.00;101709.84;5012352;28;20216;-67
2023/10/15 01:57:54;;;;;;;14.77;3.10;;;;;;;6.67;100.00;101706.25;5011848;28;20061;-66
2023/10/15 02:00:43;;;;;;;13.70;3.00;;;;;;;6.61;100.00;101686.16;5010548;28;20124;-66
2023/10/15 02:03:10;;;;;;;13.05;2.90;;;;;;;6.57;100.00;101698.72;5012046;28;20076;-66
2023/10/15 02:05:42;;;;;;;11.55;2.80;;;;;;;6.53;100.00;101692.06;4993999;28;20394;-66
2023/10/15 02:08:09;;;;;;;7.88;2.10;;;;;;;6.50;100.00;101687.94;5011977;28;20112;-66
2023/10/15 02:10:38;;;;;;;11.00;2.63;;;;;;;6.49;100.00;101688.19;5011538;28;20109;-66
2023/10/15 02:13:04;;;;;;;9.52;2.60;;;;;;;6.45;100.00;101690.63;5011855;28;20112;-66
2023/10/15 02:15:33;;;;;;;11.82;2.85;;;;;;;6.38;100.00;101681.75;5011607;28;20073;-66
2023/10/15 02:17:59;;;;;;;10.57;2.78;;;;;;;6.31;100.00;101673.72;5011547;28;20080;-66
2023/10/15 02:23:10;;;;;;;9.95;2.80;;;;;;;6.22;100.00;101673.31;5011949;28;20077;-66
2023/10/15 02:25:41;;;;;;;11.35;2.75;;;;;;;6.19;100.00;101681.25;5011779;28;20033;-66
2023/10/15 02:28:09;;;;;;;9.40;2.85;;;;;;;6.15;100.00;101680.94;5012019;28;20133;-66
2023/10/15 02:30:35;;;;;;;12.90;2.72;;;;;;;6.16;100.00;101692.75;5011831;28;20037;-66
2023/10/15 02:33:01;;;;;;;18.63;4.43;;;;;;;6.17;100.00;101688.91;5012102;28;20026;-66
2023/10/15 02:35:39;;;;;;;15.45;3.53;;;;;;;6.18;100.00;101685.94;5012252;28;20477;-66
2023/10/15 02:38:08;;;;;;;15.10;3.30;;;;;;;6.21;100.00;101681.84;5012042;28;20132;-66
2023/10/15 02:40:36;;;;;;;11.50;2.60;;;;;;;6.21;100.00;101693.66;5011650;28;20034;-66
2023/10/15 02:43:06;;;;;;;11.05;2.65;;;;;;;6.15;100.00;101730.38;5011642;28;20029;-66
2023/10/15 02:45:35;;;;;;;12.43;3.30;;;;;;;6.20;100.00;101759.84;5011921;28;20057;-66
2023/10/15 02:48:10;;;;;;;16.95;3.80;;;;;;;6.14;100.00;101758.94;5011515;28;20589;-66
2023/10/15 02:50:36;;;;;;;17.92;4.28;;;;;;;6.01;100.00;101753.81;5011910;28;20111;-65
2023/10/15 02:53:05;;;;;;;17.65;4.25;;;;;;;5.94;100.00;101776.78;5011766;28;20415;-66
2023/10/15 02:55:36;;;;;;;15.00;3.92;;;;;;;5.87;100.00;101764.28;5012118;28;20088;-67
2023/10/15 02:58:02;;;;;;;17.27;3.47;;;;;;;5.76;100.00;101764.13;5011774;28;20038;-66
2023/10/15 03:00:28;;;;;;;13.73;2.80;;;;;;;5.67;100.00;101751.09;5011700;28;20022;-66
2023/10/15 03:02:54;;;;;;;14.15;3.17;;;;;;;5.57;100.00;101736.13;5011116;28;20056;-66
2023/10/15 03:05:25;;;;;;;11.15;2.78;;;;;;;5.52;100.00;101730.56;5011155;28;20022;-66
2023/10/15 03:07:51;;;;;;;7.20;2.40;;;;;;;5.46;100.00;101726.91;5011143;28;20057;-66
2023/10/15 03:10:21;;;;;;;8.82;2.55;;;;;;;5.51;100.00;101725.31;5010586;28;20077;-67
2023/10/15 03:12:50;;;;;;;10.18;2.92;;;;;;;5.53;100.00;101723.97;5011118;28;20034;-65
2023/10/15 03:15:20;;;;;;;11.23;2.80;;;;;;;5.57;100.00;101721.56;5011319;28;20100;-65
2023/10/15 03:17:46;;;;;;;9.25;2.38;;;;;;;5.61;100.00;101711.75;5011230;28;20026;-65
2023/10/15 03:22:41;;;;;;;8.77;2.60;;;;;;;5.62;100.00;101733.44;5010890;28;20073;-65
2023/10/15 03:25:13;;;;;;;12.77;2.58;;;;;;;5.68;100.00;101741.78;5010771;28;20060;-65
2023/10/15 03:27:46;;;;;;;12.88;2.83;;;;;;;5.71;100.00;101739.34;5011005;28;20100;-65
2023/10/15 03:30:14;;;;;;;9.52;2.30;;;;;;;5.70;100.00;101728.63;5010729;28;20489;-66
2023/10/15 03:32:41;;;;;;;10.63;2.30;;;;;;;5.72;100.00;101719.06;5010524;28;20099;-66
2023/10/15 03:35:17;;;;;;;10.10;2.15;;;;;;;5.72;100.00;101726.44;5009506;28;20446;-66
2023/10/15 03:37:45;;;;;;;8.00;2.13;;;;;;;5.71;100.00;101725.63;5010488;28;20079;-66
2023/10/15 03:40:29;;;;;;;6.30;2.00;;;;;;;5.71;100.00;101735.78;5010353;28;20137;-65
2023/10/15 03:43:01;;;;;;;8.63;2.17;;;;;;;5.73;100.00;101748.19;5010390;28;20481;-65
2023/10/15 03:45:28;;;;;;;10.23;2.47;;;;;;;5.71;100.00;101742.09;5010449;28;20077;-66
2023/10/15 03:47:54;;;;;;;8.68;2.30;;;;;;;5.73;100.00;101736.34;5010127;28;20041;-66
2023/10/15 03:50:20;;;;;;;8.70;2.28;;;;;;;5.71;100.00;101744.84;5010229;28;20026;-66
2023/10/15 03:52:45;;;;;;;9.70;2.25;;;;;;;5.69;100.00;101748.94;5010169;28;20049;-66
2023/10/15 03:55:10;;;;;;;9.15;2.05;;;;;;;5.69;100.00;101757.16;5009734;28;20058;-66
2023/10/15 03:57:36;;;;;;;13.88;2.35;;;;;;;5.72;100.00;101740.16;5010945;28;20052;-66
2023/10/15 04:00:13;;;;;;;6.03;2.20;;;;;;;5.78;100.00;101755.66;5010168;28;20037;-66
2023/10/15 04:05:32;;;;;;;9.35;2.17;;;;;;;5.93;100.00;101760.56;4986529;28;20134;-66
2023/10/15 04:07:57;;;;;;;5.82;2.00;;;;;;;5.93;100.00;101742.13;5010344;28;20069;-66
2023/10/15 04:10:23;;;;;;;9.93;2.10;;;;;;;5.96;100.00;101732.56;5010163;28;20477;-65
2023/10/15 04:12:49;;;;;;;8.82;2.00;;;;;;;5.93;100.00;101722.09;5010227;28;20049;-66
2023/10/15 04:15:16;;;;;;;7.10;2.10;;;;;;;5.88;100.00;101714.63;5009992;28;20080;-66
2023/10/15 04:17:48;;;;;;;7.10;1.98;;;;;;;5.87;100.00;101720.34;5010048;28;20561;-66
2023/10/15 04:20:15;;;;;;;6.75;2.10;;;;;;;5.85;100.00;101741.75;5010253;28;20243;-66
2023/10/15 04:22:44;;;;;;;5.88;1.80;;;;;;;5.85;100.00;101737.09;5009250;28;20069;-66
2023/10/15 04:25:23;;;;;;;6.80;2.10;;;;;;;5.83;100.00;101736.50;5009918;28;20029;-66
2023/10/15 04:27:48;;;;;;;7.10;2.00;;;;;;;5.77;100.00;101737.53;5009841;28;20100;-66
2023/10/15 04:30:14;;;;;;;8.93;2.30;;;;;;;5.85;100.00;101752.75;5009693;28;20033;-66
2023/10/15 04:35:11;;;;;;;7.05;2.00;;;;;;;5.85;100.00;101750.81;5009528;28;20380;-66
2023/10/15 04:37:36;;;;;;;7.28;1.80;;;;;;;5.88;100.00;101746.72;5009710;28;20022;-66
2023/10/15 04:40:04;;;;;;;7.60;2.20;;;;;;;5.91;100.00;101749.78;5009384;28;20037;-66
2023/10/15 04:42:48;;;;;;;6.32;1.90;;;;;;;5.92;100.00;101747.91;5009393;28;20037;-66
2023/10/15 04:48:01;;;;;;;8.68;2.15;;;;;;;5.93;100.00;101755.06;5009738;28;20045;-66
2023/10/15 04:50:32;;;;;;;8.20;2.20;;;;;;;5.94;100.00;101759.47;5009276;28;20096;-66
2023/10/15 04:53:12;;;;;;;6.95;2.15;;;;;;;5.92;100.00;101745.16;5009367;28;20350;-66
2023/10/15 04:55:41;;;;;;;7.32;2.22;;;;;;;5.87;100.00;101740.41;5009430;28;20061;-66
2023/10/15 04:58:06;;;;;;;9.00;2.20;;;;;;;5.82;100.00;101742.25;5009603;28;20136;-66
2023/10/15 05:00:33;;;;;;;9.23;2.30;;;;;;;5.75;100.00;101748.75;5009177;28;20476;-66
2023/10/15 05:02:58;;;;;;;8.95;2.22;;;;;;;5.66;100.00;101747.53;5009237;28;20067;-66
2023/10/15 05:05:24;;;;;;;8.25;2.30;;;;;;;5.60;100.00;101743.00;4991362;28;20109;-66
2023/10/15 05:07:49;;;;;;;5.82;2.35;;;;;;;5.44;100.00;101729.06;5009198;28;20022;-66
2023/10/15 05:10:14;;;;;;;6.68;2.40;;;;;;;5.42;100.00;101736.69;5009249;28;20034;-66
2023/10/15 05:12:40;;;;;;;8.35;2.40;;;;;;;5.35;100.00;101727.81;5009236;28;20095;-66
2023/10/15 05:15:06;;;;;;;9.57;2.70;;;;;;;5.32;100.00;101733.78;4991533;28;20457;-66
2023/10/15 05:17:31;;;;;;;9.00;2.67;;;;;;;5.28;100.00;101733.47;5009150;28;20030;-66
2023/10/15 05:19:56;;;;;;;5.97;2.58;;;;;;;5.23;100.00;101738.03;5009191;28;20216;-66
2023/10/15 05:22:22;;;;;;;11.95;2.80;;;;;;;5.20;100.00;101738.50;5002030;28;20385;-66
2023/10/15 05:24:47;;;;;;;9.88;2.72;;;;;;;5.17;100.00;101739.03;5028808;28;20044;-65
2023/10/15 05:27:12;;;;;;;10.15;3.30;;;;;;;5.15;100.00;101734.63;5029224;28;20439;-66
2023/10/15 05:29:39;;;;;;;8.15;3.00;;;;;;;5.14;100.00;101735.69;5029431;28;20037;-65
2023/10/15 05:32:05;;;;;;;12.30;3.17;;;;;;;5.15;100.00;101731.03;5029510;28;20084;-66
2023/10/15 05:34:30;;;;;;;8.23;3.00;;;;;;;5.14;100.00;101738.44;5030677;28;20537;-66
2023/10/15 05:36:55;;;;;;;12.80;3.72;;;;;;;5.19;100.00;101747.84;5032908;28;20117;-64
2023/10/15 05:39:24;;;;;;;9.20;3.22;;;;;;;5.27;100.00;101761.97;5032866;28;20113;-65
2023/10/15 05:41:49;;;;;;;10.48;3.00;;;;;;;5.35;100.00;101765.38;5032802;28;20111;-65
2023/10/15 05:44:15;;;;;;;13.70;4.35;;;;;;;5.42;100.00;101760.59;5032453;28;20116;-65
2023/10/15 05:46:41;;;;;;;10.82;3.33;;;;;;;5.46;100.00;101770.81;5014269;28;20112;-65
2023/10/15 05:49:06;;;;;;;9.82;3.42;;;;;;;5.54;100.00;101771.47;5032475;28;20033;-65
2023/10/15 05:51:32;;;;;;;15.05;3.50;;;;;;;5.58;100.00;101764.38;5032768;28;20029;-66
2023/10/15 05:53:57;;;;;;;11.32;3.42;;;;;;;5.58;100.00;101750.66;5032713;28;20179;-65
2023/10/15 05:56:23;;;;;;;11.82;3.40;;;;;;;5.64;100.00;101766.16;5032484;28;20033;-66
2023/10/15 05:58:49;;;;;;;11.98;3.47;;;;;;;5.63;100.00;101776.28;5032544;28;20022;-65
2023/10/15 06:01:15;;;;;;;12.18;3.30;;;;;;;5.68;100.00;101778.28;5032140;28;20025;-65
2023/10/15 06:03:41;;;;;;;9.65;2.80;;;;;;;5.68;100.00;101772.78;5014577;28;20025;-65
2023/10/15 06:06:06;;;;;;;9.98;2.70;;;;;;;5.70;100.00;101784.34;5031838;28;20079;-65
2023/10/15 06:08:32;;;;;;;6.72;2.50;;;;;;;5.73;100.00;101788.50;5031878;28;20365;-65
2023/10/15 06:10:58;;;;;;;9.02;2.30;;;;;;;5.76;100.00;101793.50;5013607;28;20385;-66
2023/10/15 06:13:23;;;;;;;11.77;2.53;;;;;;;5.78;100.00;101786.69;5031750;28;20026;-65
2023/10/15 06:15:50;;;;;;;11.02;2.17;;;;;;;5.81;100.00;101790.00;5031594;28;20096;-65
2023/10/15 06:18:16;;;;;;;8.07;2.05;;;;;;;5.81;100.00;101790.84;5031477;28;20040;-66
2023/10/15 06:20:41;;;;;;;7.70;1.90;;;;;;;5.83;100.00;101796.09;5031347;28;20033;-65
2023/10/15 06:23:08;;;;;;;8.32;2.00;;;;;;;5.84;100.00;101811.50;5031325;28;20271;-65
2023/10/15 06:25:35;;;;;;;5.63;1.88;;;;;;;5.83;100.00;101815.31;5031169;28;20108;-65
2023/10/15 06:28:01;;;;;;;4.63;1.63;;;;;;;5.83;100.00;101815.31;5031071;28;20025;-65
2023/10/15 06:30:27;;;;;;;6.00;1.85;;;;;;;5.83;100.00;101812.56;5031152;28;20026;-65
2023/10/15 06:32:52;;;;;;;6.85;1.60;;;;;;;5.75;100.00;101800.09;5031157;28;20056;-65
2023/10/15 06:35:20;;;;;;;4.95;1.58;;;;;;;5.72;100.00;101797.81;5031179;28;20353;-65
2023/10/15 06:37:46;;;;;;;7.03;1.75;;;;;;;5.71;100.00;101788.78;5031151;28;20033;-66
2023/10/15 06:40:13;;;;;;;4.32;1.42;;;;;;;5.78;100.00;101778.44;5013031;28;20037;-66
2023/10/15 06:42:39;;;;;;;5.38;1.40;;;;;;;5.82;100.00;101780.69;5031139;28;20041;-66
2023/10/15 06:45:06;;;;;;;4.97;1.30;;;;;;;5.81;100.00;101774.34;5030818;28;20047;-66
2023/10/15 06:47:32;;;;;;;5.13;1.40;;;;;;;5.84;100.00;101790.34;5030269;28;20056;-66
2023/10/15 06:49:58;;;;;;;7.55;1.80;;;;;;;5.82;100.00;101808.16;5030967;28;20029;-66
2023/10/15 06:52:23;;;;;;;8.15;1.80;;;;;;;5.82;100.00;101824.63;5030900;28;20099;-65
2023/10/15 06:54:48;;;;;;;4.63;1.70;;;;;;;5.79;100.00;101839.69;5030819;28;20037;-66
2023/10/15 06:57:16;;;;;;;5.18;1.75;;;;;;;5.81;100.00;101842.19;5030881;28;20072;-65
2023/10/15 06:59:44;;;;;;;6.47;1.70;;;;;;;5.78;100.00;101841.59;5030700;28;20041;-66
2023/10/15 07:02:10;;;;;;;9.15;2.00;;;;;;;5.81;100.00;101842.19;5030713;28;20449;-64
2023/10/15 07:04:36;;;;;;;5.90;2.00;;;;;;;5.88;100.00;101845.59;5030578;28;20053;-65
2023/10/15 07:07:01;;;;;;;7.55;2.10;;;;;;;5.96;100.00;101844.34;5030592;28;20060;-65
2023/10/15 07:09:27;;;;;;;4.57;1.90;;;;;;;6.01;100.00;101839.81;5030424;28;20510;-65
2023/10/15 07:11:53;;;;;;;6.47;1.80;;;;;;;6.07;100.00;101851.72;5030414;28;20453;-65
2023/10/15 07:14:18;;;;;;;8.23;1.88;;;;;;;6.16;100.00;101860.34;5030574;28;20105;-65
2023/10/15 07:16:43;;;;;;;10.85;2.10;;;;;;;6.21;100.00;101858.50;5030282;28;20025;-66
2023/10/15 07:19:09;;;;;;;8.80;2.10;;;;;;;6.28;100.00;101855.59;5030335;28;20369;-66
2023/10/15 07:21:34;;;;;;;6.45;1.83;;;;;;;6.36;100.00;101866.16;5030237;28;20065;-66
2023/10/15 07:23:59;;;;;;;9.07;2.05;;;;;;;6.42;100.00;101864.31;5030603;28;20033;-66
2023/10/15 07:26:24;;;;;;;12.38;2.30;;;;;;;6.50;100.00;101863.88;5030298;28;20044;-65
2023/10/15 07:28:50;;;;;;;10.38;2.17;;;;;;;6.53;100.00;101863.38;5030889;28;20091;-66
2023/10/15 07:31:15;;;;;;;9.07;2.05;;;;;;;6.59;100.00;101877.19;5030509;28;20033;-66
2023/10/15 07:33:40;;;;;;;7.60;1.92;;;;;;;6.57;100.00;101888.44;5030439;28;20393;-65
2023/10/15 07:36:07;;;;;;;6.75;1.95;;;;;;;6.52;100.00;101882.84;5030446;28;20061;-65
2023/10/15 07:38:33;;;;;;;6.03;1.50;;;;;;;6.46;100.00;101883.88;5030745;28;20042;-65
2023/10/15 07:40:59;;;;;;;4.32;1.48;;;;;;;6.44;100.00;101895.13;5030752;28;20436;-65
2023/10/15 07:43:25;;;;;;;7.00;1.70;;;;;;;6.52;100.00;101899.34;5030696;28;20021;-65
2023/10/15 07:45:50;;;;;;;5.80;1.80;;;;;;;6.51;100.00;101905.97;5030786;28;20385;-65
2023/10/15 07:48:15;;;;;;;7.80;2.00;;;;;;;6.51;100.00;101904.03;5030587;28;20021;-65
2023/10/15 07:50:43;;;;;;;9.00;1.77;;;;;;;6.51;100.00;101898.53;5030542;28;20032;-65
2023/10/15 07:53:08;;;;;;;6.85;1.83;;;;;;;6.55;100.00;101907.09;5030364;28;20068;-66
2023/10/15 07:55:34;;;;;;;8.18;1.70;;;;;;;6.55;100.00;101909.84;5030518;28;20057;-65
2023/10/15 07:57:59;;;;;;;6.38;1.85;;;;;;;6.62;100.00;101906.94;5030348;28;20174;-65
2023/10/15 08:00:29;;;;;;;5.68;1.75;;;;;;;6.67;100.00;101899.59;5029851;28;20030;-65
2023/10/15 08:02:58;;;;;;;7.20;2.15;;;;;;;6.77;100.00;101885.13;5029917;28;20424;-65
2023/10/15 08:05:28;;;;;;;8.18;2.10;;;;;;;6.84;100.00;101885.78;5029914;28;20231;-66
2023/10/15 08:07:54;;;;;;;6.93;1.73;;;;;;;6.93;100.00;101894.41;5030156;28;20549;-66
2023/10/15 08:10:21;;;;;;;9.90;1.92;;;;;;;7.00;100.00;101886.78;5011588;28;20075;-66
2023/10/15 08:12:51;;;;;;;6.85;1.90;;;;;;;7.08;100.00;101892.97;5011798;28;20362;-65
2023/10/15 08:15:20;;;;;;;9.68;2.05;;;;;;;7.14;100.00;101898.25;5029898;28;20108;-66
2023/10/15 08:17:46;;;;;;;10.38;2.10;;;;;;;7.24;100.00;101904.94;5030062;28;20033;-65
2023/10/15 08:20:12;;;;;;;9.52;1.95;;;;;;;7.27;100.00;101909.94;5029966;28;20373;-66
2023/10/15 08:22:40;;;;;;;8.85;1.95;;;;;;;7.29;100.00;101922.34;5029958;28;20049;-66
2023/10/15 08:25:18;;;;;;;6.93;1.80;;;;;;;7.37;100.00;101926.59;5029881;28;20041;-65
2023/10/15 08:27:44;;;;;;;6.47;1.60;;;;;;;7.44;100.00;101921.72;5029949;28;20045;-65
2023/10/15 08:30:12;;;;;;;7.45;1.88;;;;;;;7.59;100.00;101923.78;5012100;28;20308;-66
2023/10/15 08:32:39;;;;;;;7.93;1.77;;;;;;;7.82;100.00;101938.34;5029564;28;20017;-65
2023/10/15 08:35:05;;;;;;;8.13;1.75;;;;;;;7.93;100.00;101950.28;5030018;28;20030;-65
2023/10/15 08:37:30;;;;;;;7.30;1.83;;;;;;;8.01;100.00;101958.09;5030095;28;20087;-65
2023/10/15 08:39:56;;;;;;;7.40;1.58;;;;;;;7.91;100.00;101982.78;5029842;28;20037;-65
2023/10/15 08:42:28;;;;;;;8.25;1.98;;;;;;;7.80;100.00;101985.44;5029621;28;20453;-65
2023/10/15 08:44:57;;;;;;;4.87;2.00;;;;;;;7.67;100.00;102004.28;5029613;28;20473;-65
2023/10/15 08:47:25;;;;;;;9.38;2.53;;;;;;;7.55;100.00;102012.69;5029538;28;20416;-65
2023/10/15 08:49:52;;;;;;;8.00;1.92;;;;;;;7.46;100.00;102015.91;5030313;28;20032;-65
2023/10/15 08:52:19;;;;;;;8.65;2.00;;;;;;;7.41;100.00;102013.09;5030041;28;20025;-65
2023/10/15 08:54:46;;;;;;;8.27;2.17;;;;;;;7.33;100.00;102010.75;5029907;28;20045;-66
2023/10/15 08:57:13;;;;;;;11.95;2.47;;;;;;;7.28;100.00;102010.72;5029512;28;20051;-66
2023/10/15 08:59:39;;;;;;;9.27;2.25;;;;;;;7.37;100.00;102016.63;5029454;28;20132;-66
2023/10/15 09:02:05;;;;;;;10.63;1.98;;;;;;;7.31;100.00;102027.53;5029303;28;20033;-65
2023/10/15 09:04:32;;;;;;;11.75;2.00;;;;;;;7.25;100.00;102020.31;5029381;28;20028;-65
2023/10/15 09:07:01;;;;;;;7.20;1.75;;;;;;;7.23;100.00;102018.88;5029335;28;20025;-66
2023/10/15 09:09:28;;;;;;;7.53;1.48;;;;;;;7.18;100.00;102012.25;5030527;28;20123;-65
2023/10/15 09:11:54;;;;;;;3.92;1.30;;;;;;;7.28;100.00;102021.72;5033314;28;20083;-65
2023/10/15 09:14:36;;;;;;;9.40;1.75;;;;;;;7.35;100.00;102014.09;5033167;28;20034;-66
2023/10/15 09:17:02;;;;;;;8.63;1.73;;;;;;;7.38;100.00;102021.00;5033610;28;20025;-66
2023/10/15 09:19:31;;;;;;;7.93;1.70;;;;;;;7.31;100.00;102012.97;5033765;28;20026;-66
2023/10/15 09:21:57;;;;;;;9.43;1.92;;;;;;;7.46;100.00;102026.09;5033549;28;20057;-66
2023/10/15 09:24:22;;;;;;;6.93;1.33;;;;;;;7.58;100.00;102018.50;5033247;28;20555;-65
2023/10/15 09:26:48;;;;;;;5.40;1.55;;;;;;;7.88;100.00;102016.38;5032979;28;20029;-65
2023/10/15 09:29:19;;;;;;;8.40;1.50;;;;;;;8.09;100.00;102017.41;5015190;28;20026;-65
2023/10/15 09:31:44;;;;;;;4.75;1.20;;;;;;;8.35;100.00;102026.78;5033035;28;20622;-65
2023/10/15 09:34:11;;;;;;;8.23;1.50;;;;;;;8.61;100.00;102029.75;5032630;28;20025;-65
2023/10/15 09:36:38;;;;;;;8.32;1.50;;;;;;;8.75;100.00;102038.44;5032482;28;20040;-65
2023/10/15 09:39:13;;;;;;;7.57;1.60;;;;;;;8.81;100.00;102037.34;5032914;28;20056;-65
2023/10/15 09:41:41;;;;;;;10.13;1.85;;;;;;;8.79;100.00;102044.25;5032600;28;20029;-65
2023/10/15 09:44:09;;;;;;;6.93;1.92;;;;;;;8.74;100.00;102048.63;5032830;28;20025;-66
2023/10/15 09:46:35;;;;;;;8.02;1.90;;;;;;;8.81;100.00;102053.09;5033148;28;20121;-66
2023/10/15 09:49:04;;;;;;;5.70;1.48;;;;;;;8.77;100.00;102055.56;5033080;28;20037;-66
2023/10/15 09:51:32;;;;;;;8.27;1.60;;;;;;;8.80;100.00;102057.75;5032737;28;20030;-66
2023/10/15 09:53:59;;;;;;;6.43;1.45;;;;;;;8.80;100.00;102060.53;5032749;28;20021;-66
2023/10/15 09:56:27;;;;;;;7.00;1.65;;;;;;;8.79;100.00;102063.56;5032358;28;20506;-65
2023/10/15 09:58:53;;;;;;;8.85;1.58;;;;;;;8.87;100.00;102066.66;5032442;28;20029;-66
2023/10/15 10:01:26;;;;;;;9.52;1.83;;;;;;;8.79;100.00;102071.84;5032587;28;20022;-66
2023/10/15 10:04:04;;;;;;;9.07;2.15;;;;;;;8.75;100.00;102074.28;5032643;28;20033;-66
2023/10/15 10:06:47;;;;;;;7.32;2.00;;;;;;;8.79;100.00;102071.84;5032582;28;20022;-66
2023/10/15 10:09:36;;;;;;;11.63;1.90;;;;;;;8.78;100.00;102081.19;5032521;28;20055;-66
2023/10/15 10:12:07;;;;;;;9.40;1.90;;;;;;;8.78;100.00;102087.56;5032545;28;20048;-66
2023/10/15 10:14:54;;;;;;;8.80;1.73;;;;;;;8.84;100.00;102080.13;5032460;28;20021;-65
2023/10/15 10:17:21;;;;;;;9.55;2.00;;;;;;;8.93;100.00;102089.59;5032244;28;20108;-66
2023/10/15 10:19:52;;;;;;;11.88;2.03;;;;;;;8.90;100.00;102103.94;5032340;28;20041;-66
2023/10/15 10:22:25;;;;;;;5.60;1.40;;;;;;;8.93;100.00;102113.63;5030807;28;20609;-65
2023/10/15 10:24:52;;;;;;;7.97;1.50;;;;;;;8.88;100.00;102109.69;5032138;28;20033;-65
2023/10/15 10:27:18;;;;;;;8.18;1.45;;;;;;;8.83;100.00;102120.72;5031915;28;20018;-65
2023/10/15 10:29:49;;;;;;;5.85;1.10;;;;;;;8.78;100.00;102123.44;5032042;28;20048;-66
2023/10/15 10:32:15;;;;;;;8.82;1.15;;;;;;;8.74;100.00;102123.09;5032241;28;20083;-66
2023/10/15 10:34:41;;;;;;;8.57;2.00;;;;;;;8.73;100.00;102120.63;5032234;28;20022;-65
2023/10/15 10:37:23;;;;;;;7.80;1.30;;;;;;;8.81;100.00;102116.56;5032019;28;20034;-65
2023/10/15 10:39:49;;;;;;;4.60;1.48;;;;;;;8.67;100.00;102116.97;5032213;28;20025;-65
2023/10/15 10:42:24;;;;;;;6.32;1.13;;;;;;;8.63;100.00;102110.34;5031610;28;20105;-65
2023/10/15 10:44:49;;;;;;;5.50;1.30;;;;;;;8.80;100.00;102120.41;5031679;28;20140;-65
2023/10/15 10:47:18;;;;;;;8.05;1.50;;;;;;;8.84;100.00;102110.50;5031528;28;20045;-65
2023/10/15 10:49:51;;;;;;;10.65;1.88;;;;;;;8.83;100.00;102100.56;5031591;28;20036;-65
2023/10/15 10:52:19;;;;;;;6.50;1.70;;;;;;;8.94;100.00;102099.53;5031601;28;20067;-65
2023/10/15 10:54:48;;;;;;;8.63;1.48;;;;;;;8.90;100.00;102114.97;5031428;28;20075;-65
2023/10/15 10:57:18;;;;;;;7.00;2.00;;;;;;;8.89;100.00;102111.38;5030953;28;20584;-65
2023/10/15 10:59:43;;;;;;;9.57;2.10;;;;;;;8.96;100.00;102104.81;5032075;28;20036;-67
2023/10/15 11:02:11;;;;;;;7.50;1.70;;;;;;;8.94;100.00;102098.72;5031451;28;20025;-65
2023/10/15 11:04:40;;;;;;;9.27;2.40;;;;;;;8.96;100.00;102091.84;5031306;28;20080;-65
2023/10/15 11:07:07;;;;;;;9.15;2.38;;;;;;;9.12;100.00;102106.59;5031543;28;20470;-65
2023/10/15 11:09:37;;;;;;;7.70;1.85;;;;;;;9.12;100.00;102094.69;5031464;28;20058;-65
2023/10/15 11:12:04;;;;;;;10.10;2.20;;;;;;;9.11;100.00;102112.38;5031549;28;20025;-65
2023/10/15 11:14:29;;;;;;;7.78;1.80;;;;;;;9.11;100.00;102110.44;5031324;28;20030;-65
2023/10/15 11:16:55;;;;;;;7.18;1.48;;;;;;;9.18;100.00;102108.28;5031179;28;20036;-65
2023/10/15 11:19:23;;;;;;;7.55;1.75;;;;;;;9.34;100.00;102116.69;5031635;28;20026;-65
2023/10/15 11:21:51;;;;;;;5.00;1.50;;;;;;;9.45;100.00;102126.66;5031499;28;20128;-65
2023/10/15 11:24:17;;;;;;;6.93;1.70;;;;;;;9.51;100.00;102124.75;5031682;28;20048;-65
2023/10/15 11:26:44;;;;;;;6.70;1.85;;;;;;;9.60;100.00;102131.44;5030926;28;20470;-65
2023/10/15 11:29:13;;;;;;;5.80;1.33;;;;;;;9.61;100.00;102126.78;5031157;28;20037;-65
2023/10/15 11:31:44;;;;;;;9.45;1.58;;;;;;;9.67;100.00;102129.28;5030685;28;20025;-65
2023/10/15 11:34:22;;;;;;;8.82;1.45;;;;;;;9.67;100.00;102125.69;5030977;28;20083;-65
2023/10/15 11:36:50;;;;;;;9.50;1.70;;;;;;;9.68;100.00;102125.41;5030731;28;20040;-65
2023/10/15 11:39:25;;;;;;;7.57;1.42;;;;;;;9.61;100.00;102126.78;5030465;28;20477;-65
2023/10/15 11:41:52;;;;;;;6.60;1.30;;;;;;;9.56;100.00;102118.44;5030763;28;20022;-64
2023/10/15 11:44:25;;;;;;;7.82;1.55;;;;;;;9.57;100.00;102115.44;5012796;28;20045;-66
2023/10/15 11:46:52;;;;;;;6.78;1.77;;;;;;;9.57;100.00;102123.72;5031150;28;20025;-66